createdAt,value
2023-02-08T00:05:59.868Z,81700.48
2023-02-08T00:11:59.548Z,81706.53
2023-02-08T00:17:59.648Z,81713.59
2023-02-08T00:23:59.556Z,81723.66
2023-02-08T00:29:59.509Z,81717.62
2023-02-08T00:35:59.478Z,81721.65
2023-02-08T00:41:59.047Z,81723.66
2023-02-08T00:47:58.936Z,81737.78
2023-02-08T00:53:58.884Z,81736.77
2023-02-08T00:59:58.758Z,81752.89
2023-02-08T01:05:58.536Z,81754.91
2023-02-08T01:11:58.206Z,81769.02
2023-02-08T01:17:58.687Z,81777.09
2023-02-08T01:23:58.741Z,81789.19
2023-02-08T01:29:58.628Z,81771.05
2023-02-08T01:35:58.396Z,81779.11
2023-02-08T01:41:58.268Z,81807.33
2023-02-08T01:45:19.855Z,81817.41
2023-02-08T01:51:00.972Z,81863.78
2023-02-08T01:54:05.601Z,81860.76
2023-02-08T01:59:46.974Z,81850.67
2023-02-08T02:02:51.501Z,81831.52
2023-02-08T02:08:33.281Z,81839.59
2023-02-08T02:11:37.931Z,81834.55
2023-02-08T02:17:19.249Z,81845.64
2023-02-08T02:20:23.972Z,81839.59
2023-02-08T02:26:09.420Z,81860.76
2023-02-08T02:29:14.082Z,81872.85
2023-02-08T02:35:02.978Z,81889.98
2023-02-08T02:38:07.658Z,81870.84
2023-02-08T02:43:49.360Z,81866.80
2023-02-08T02:46:54.061Z,81842.61
2023-02-08T02:52:35.430Z,81833.54
2023-02-08T02:55:39.957Z,81826.48
2023-02-08T03:01:21.125Z,81849.67
2023-02-08T03:04:25.819Z,81846.64
2023-02-08T03:10:10.515Z,81887.97
2023-02-08T03:13:15.107Z,81913.17
2023-02-08T03:18:57.203Z,81885.95
2023-02-08T03:22:01.889Z,81864.79
2023-02-08T03:27:45.100Z,81863.78
2023-02-08T03:33:45.367Z,81855.72
2023-02-08T03:39:45.453Z,81859.75
2023-02-08T03:45:45.576Z,81865.80
2023-02-08T03:51:47.570Z,81868.82
2023-02-08T03:57:47.878Z,81846.64
2023-02-08T04:03:49.490Z,81835.55
2023-02-08T04:09:49.389Z,81812.38
2023-02-08T04:15:50.455Z,81797.25
2023-02-08T04:21:50.445Z,81781.12
2023-02-08T04:27:50.405Z,81774.06
2023-02-08T04:33:50.406Z,81770.03
2023-02-08T04:39:52.403Z,81786.16
2023-02-08T04:45:52.080Z,81786.16
2023-02-08T04:51:52.217Z,81771.05
2023-02-08T04:57:54.442Z,81777.09
2023-02-08T05:03:54.227Z,81747.86
2023-02-08T05:09:54.147Z,81732.73
2023-02-08T05:15:54.221Z,81720.64
2023-02-08T05:21:54.209Z,81727.70
2023-02-08T05:27:54.105Z,81739.80
2023-02-08T05:33:54.164Z,81713.59
2023-02-08T05:39:54.146Z,81705.52
2023-02-08T05:45:54.202Z,81712.58
2023-02-08T05:51:55.899Z,81713.59
2023-02-08T05:57:55.604Z,81723.66
2023-02-08T06:03:55.596Z,81723.66
2023-02-08T06:09:57.391Z,81719.63
2023-02-08T06:15:57.529Z,81717.62
2023-02-08T06:21:57.592Z,81689.39
2023-02-08T06:27:57.661Z,81689.39
2023-02-08T06:33:56.967Z,81699.48
2023-02-08T06:39:56.784Z,81695.44
2023-02-08T06:45:56.861Z,81712.58
2023-02-08T06:51:57.019Z,81693.42
2023-02-08T06:57:57.050Z,81681.33
2023-02-08T07:03:59.467Z,81676.29
2023-02-08T07:09:59.453Z,81675.28
2023-02-08T07:16:03.551Z,81660.16
2023-02-08T07:22:05.100Z,81418.26
2023-02-08T07:28:03.781Z,81223.73
2023-02-08T07:34:03.489Z,81080.63
2023-02-08T07:40:03.422Z,81065.51
2023-02-08T07:46:04.154Z,80814.58
2023-02-08T07:52:04.323Z,80789.38
2023-02-08T07:58:04.448Z,80644.27
2023-02-08T08:04:04.305Z,80678.53
2023-02-08T08:10:06.817Z,80598.93
2023-02-08T08:16:07.565Z,80599.94
2023-02-08T08:22:07.408Z,80460.88
2023-02-08T08:28:07.143Z,80389.34
2023-02-08T08:34:07.203Z,80299.66
2023-02-08T08:40:06.824Z,80161.63
2023-02-08T08:46:07.297Z,80132.41
2023-02-08T08:57:29.083Z,80372.21
2023-02-08T12:14:30.149Z,81090.70
2023-02-08T13:51:54.078Z,80777.29
2023-02-08T13:57:39.701Z,80718.84
